createdAt,value
2023-01-26T00:00:35.643Z,0.70
2023-01-26T00:04:42.430Z,0.70
2023-01-26T00:08:54.645Z,0.70
2023-01-26T00:13:01.400Z,0.70
2023-01-26T00:17:08.518Z,0.70
2023-01-26T00:21:20.896Z,0.70
2023-01-26T00:25:27.885Z,0.70
2023-01-26T00:29:36.057Z,0.80
2023-01-26T00:33:47.429Z,0.80
2023-01-26T00:37:55.459Z,0.80
2023-01-26T00:42:11.548Z,0.80
2023-01-26T00:46:18.251Z,0.80
2023-01-26T00:50:24.950Z,0.80
2023-01-26T00:54:31.826Z,0.80
2023-01-26T00:58:40.478Z,0.80
2023-01-26T01:02:47.565Z,0.80
2023-01-26T01:06:54.904Z,0.80
2023-01-26T01:11:11.678Z,0.80
2023-01-26T01:15:18.412Z,0.80
2023-01-26T01:19:25.175Z,0.80
2023-01-26T01:23:31.833Z,0.90
2023-01-26T01:27:38.615Z,0.80
2023-01-26T01:31:45.402Z,0.80
2023-01-26T01:35:59.375Z,0.80
2023-01-26T01:40:06.700Z,0.80
2023-01-26T01:44:16.325Z,0.90
2023-01-26T01:48:37.974Z,0.90
2023-01-26T01:52:44.862Z,0.90
2023-01-26T01:56:55.245Z,0.90
2023-01-26T02:01:01.991Z,0.90
2023-01-26T02:05:26.884Z,1.00
2023-01-26T02:09:56.310Z,0.90
2023-01-26T02:14:09.635Z,0.90
2023-01-26T02:18:17.286Z,1.00
2023-01-26T02:22:33.690Z,0.90
2023-01-26T02:26:40.401Z,2.20
2023-01-26T02:30:47.827Z,0.90
2023-01-26T02:34:58.082Z,0.90
2023-01-26T02:39:32.594Z,0.90
2023-01-26T02:43:40.181Z,0.90
2023-01-26T02:47:47.271Z,1.00
2023-01-26T02:51:53.931Z,1.00
2023-01-26T02:56:00.895Z,1.10
2023-01-26T03:00:10.479Z,1.10
2023-01-26T03:04:17.322Z,1.00
2023-01-26T03:08:23.987Z,1.10
2023-01-26T03:12:30.650Z,1.10
2023-01-26T03:16:38.139Z,1.10
2023-01-26T03:21:03.407Z,1.10
2023-01-26T03:25:28.833Z,1.10
2023-01-26T03:29:35.511Z,1.10
2023-01-26T03:33:42.303Z,1.10
2023-01-26T03:37:54.783Z,1.10
2023-01-26T03:42:20.457Z,1.10
2023-01-26T03:46:45.938Z,1.10
2023-01-26T03:51:11.398Z,1.10
2023-01-26T03:55:37.016Z,1.20
2023-01-26T03:59:44.223Z,1.20
2023-01-26T04:04:10.498Z,1.20
2023-01-26T04:08:43.301Z,1.20
2023-01-26T04:13:08.963Z,1.20
2023-01-26T04:17:34.483Z,1.20
2023-01-26T04:21:41.400Z,1.20
2023-01-26T04:25:48.964Z,1.30
2023-01-26T04:29:55.613Z,1.30
2023-01-26T04:34:04.133Z,1.30
2023-01-26T04:38:10.834Z,1.30
2023-01-26T04:42:17.577Z,1.30
2023-01-26T04:46:25.078Z,1.40
2023-01-26T04:50:31.733Z,1.40
2023-01-26T04:54:38.852Z,1.50
2023-01-26T04:58:45.513Z,1.50
2023-01-26T05:02:52.160Z,1.50
2023-01-26T05:06:58.829Z,1.50
2023-01-26T05:11:05.653Z,1.50
2023-01-26T05:15:12.301Z,1.50
2023-01-26T05:19:18.974Z,1.50
2023-01-26T05:23:26.161Z,1.50
2023-01-26T05:27:32.801Z,1.50
2023-01-26T05:31:39.489Z,1.50
2023-01-26T05:35:46.142Z,1.50
2023-01-26T05:39:52.893Z,1.60
2023-01-26T05:43:59.568Z,1.60
2023-01-26T05:48:06.476Z,1.50
2023-01-26T05:52:16.499Z,1.60
2023-01-26T05:56:23.161Z,1.60
2023-01-26T06:00:29.847Z,1.70
2023-01-26T06:04:36.530Z,1.60
2023-01-26T06:08:43.226Z,1.60
2023-01-26T06:12:49.909Z,1.60
2023-01-26T06:16:56.945Z,1.70
2023-01-26T06:21:03.712Z,1.70
2023-01-26T06:25:10.425Z,1.70
2023-01-26T06:29:17.520Z,1.70
2023-01-26T06:33:24.173Z,1.70
2023-01-26T06:37:30.831Z,1.70
2023-01-26T06:41:37.507Z,1.70
2023-01-26T06:45:44.268Z,1.70
2023-01-26T06:49:51.017Z,1.70
2023-01-26T06:53:58.631Z,1.80
2023-01-26T06:58:05.302Z,1.80
2023-01-26T07:02:17.826Z,1.80
2023-01-26T07:06:24.530Z,1.70
2023-01-26T07:10:31.178Z,1.70
2023-01-26T07:14:38.006Z,1.80
2023-01-26T07:18:44.766Z,1.70
2023-01-26T07:22:51.838Z,1.80
2023-01-26T07:26:58.959Z,1.80
2023-01-26T07:31:07.083Z,1.80
2023-01-26T07:35:13.825Z,1.70
2023-01-26T07:39:20.496Z,1.80
2023-01-26T07:43:27.230Z,1.80
2023-01-26T07:47:33.980Z,1.80
2023-01-26T07:51:41.045Z,1.80
2023-01-26T07:55:47.751Z,1.80
2023-01-26T07:59:54.920Z,1.70
2023-01-26T08:04:01.579Z,1.80
2023-01-26T08:08:09.648Z,1.80
2023-01-26T08:12:16.352Z,1.80
2023-01-26T08:16:23.115Z,1.80
2023-01-26T08:20:30.891Z,1.80
2023-01-26T08:24:37.748Z,1.80
2023-01-26T08:28:45.311Z,1.70
2023-01-26T08:32:51.991Z,1.70
2023-01-26T08:36:58.738Z,1.80
2023-01-26T08:41:06.386Z,1.90
2023-01-26T08:45:13.295Z,1.90
2023-01-26T08:49:20.314Z,2.20
2023-01-26T08:53:29.463Z,2.20
2023-01-26T08:57:36.124Z,2.20
2023-01-26T09:01:42.877Z,2.20
2023-01-26T09:05:49.567Z,2.30
2023-01-26T09:09:56.217Z,2.30
2023-01-26T09:14:02.922Z,2.30
2023-01-26T09:18:10.971Z,2.50
2023-01-26T09:22:17.655Z,2.60
2023-01-26T09:26:24.499Z,2.60
2023-01-26T09:30:31.764Z,2.70
2023-01-26T09:34:38.507Z,2.70
2023-01-26T09:38:45.180Z,3.00
2023-01-26T09:43:29.304Z,3.10
2023-01-26T09:47:51.148Z,3.20
2023-01-26T09:52:04.925Z,3.30
2023-01-26T09:56:19.865Z,3.30
2023-01-26T10:00:28.711Z,3.30
2023-01-26T10:04:40.314Z,3.40
2023-01-26T10:08:48.810Z,3.50
2023-01-26T10:12:56.113Z,3.30
2023-01-26T10:17:06.075Z,3.30
2023-01-26T10:21:13.570Z,3.40
2023-01-26T10:25:41.151Z,3.40
2023-01-26T10:29:47.875Z,3.50
2023-01-26T10:34:15.391Z,3.60
2023-01-26T10:38:34.477Z,3.70
2023-01-26T10:42:41.646Z,3.90
2023-01-26T10:47:03.834Z,4.00
2023-01-26T10:51:24.010Z,4.20
2023-01-26T10:55:33.171Z,4.20
2023-01-26T10:59:46.219Z,4.40
2023-01-26T11:04:01.799Z,4.60
2023-01-26T11:08:35.596Z,4.60
2023-01-26T11:12:42.323Z,4.80
2023-01-26T11:16:52.690Z,4.90
2023-01-26T11:21:16.932Z,5.20
2023-01-26T11:25:49.783Z,5.40
2023-01-26T11:30:06.447Z,5.50
2023-01-26T11:34:24.611Z,5.80
2023-01-26T11:38:40.036Z,6.00
2023-01-26T11:42:52.068Z,6.20
2023-01-26T11:47:06.381Z,6.40
2023-01-26T11:51:43.932Z,6.70
2023-01-26T11:56:15.973Z,7.10
2023-01-26T12:00:41.102Z,7.30
2023-01-26T12:04:48.513Z,7.40
2023-01-26T12:09:18.986Z,7.40
2023-01-26T12:13:42.779Z,7.60
2023-01-26T12:18:05.533Z,7.80
2023-01-26T12:22:20.555Z,7.90
2023-01-26T12:26:32.295Z,7.90
2023-01-26T12:31:05.828Z,7.80
2023-01-26T12:35:13.954Z,7.60
2023-01-26T12:39:39.806Z,8.00
2023-01-26T12:43:52.797Z,8.10
2023-01-26T12:48:13.437Z,8.10
2023-01-26T12:52:35.612Z,7.90
2023-01-26T12:56:50.005Z,7.80
2023-01-26T13:01:10.373Z,7.90
2023-01-26T13:05:29.306Z,8.20
2023-01-26T13:09:36.058Z,8.30
2023-01-26T13:13:54.807Z,8.30
2023-01-26T13:18:03.627Z,8.60
2023-01-26T13:22:19.664Z,8.70
2023-01-26T13:26:35.134Z,8.70
2023-01-26T13:30:46.245Z,8.50
2023-01-26T13:34:58.205Z,8.40
2023-01-26T13:39:30.253Z,8.20
2023-01-26T13:43:57.434Z,8.20
2023-01-26T13:48:37.879Z,8.20
2023-01-26T13:52:44.539Z,8.30
2023-01-26T13:57:00.129Z,8.20
2023-01-26T14:01:12.595Z,8.20
2023-01-26T14:05:22.644Z,8.20
2023-01-26T14:09:32.629Z,8.50
2023-01-26T14:13:40.173Z,8.40
2023-01-26T14:17:56.303Z,8.30
2023-01-26T14:22:05.197Z,8.40
2023-01-26T14:26:20.886Z,8.20
2023-01-26T14:30:31.505Z,8.10
2023-01-26T14:34:38.235Z,8.00
2023-01-26T14:38:47.686Z,8.00
2023-01-26T14:42:54.637Z,8.00
2023-01-26T14:47:15.421Z,7.90
2023-01-26T14:51:25.083Z,7.90
2023-01-26T14:55:36.116Z,7.90
2023-01-26T14:59:43.216Z,7.90
2023-01-26T15:03:56.515Z,7.90
2023-01-26T15:08:06.580Z,7.80
2023-01-26T15:12:17.122Z,7.70
2023-01-26T15:16:26.240Z,7.70
2023-01-26T15:20:35.681Z,7.60
2023-01-26T15:24:42.665Z,7.60
2023-01-26T15:28:55.532Z,7.50
2023-01-26T15:33:02.784Z,7.50
2023-01-26T15:37:31.077Z,7.40
2023-01-26T15:41:38.725Z,7.40
2023-01-26T15:45:55.061Z,7.30
2023-01-26T15:50:01.882Z,7.40
2023-01-26T15:54:11.116Z,7.40
2023-01-26T15:58:18.632Z,7.30
2023-01-26T16:02:25.647Z,7.20
2023-01-26T16:06:33.450Z,7.30
2023-01-26T16:10:40.930Z,7.30
2023-01-26T16:14:47.585Z,7.30
2023-01-26T16:18:56.004Z,7.30
2023-01-26T16:23:02.941Z,7.20
2023-01-26T16:27:09.963Z,7.10
2023-01-26T16:31:21.065Z,7.10
2023-01-26T16:35:29.306Z,7.10
2023-01-26T16:39:36.496Z,7.10
2023-01-26T16:43:43.427Z,7.10
2023-01-26T16:47:53.982Z,7.10
2023-01-26T16:52:00.956Z,7.10
2023-01-26T16:56:13.794Z,7.00
2023-01-26T17:00:23.157Z,7.00
2023-01-26T17:04:29.843Z,6.90
2023-01-26T17:08:36.540Z,7.00
2023-01-26T17:12:44.348Z,7.00
2023-01-26T17:16:51.085Z,6.90
2023-01-26T17:21:02.593Z,6.90
2023-01-26T17:25:10.201Z,6.80
2023-01-26T17:29:18.123Z,6.80
2023-01-26T17:33:24.960Z,6.90
2023-01-26T17:37:31.760Z,7.00
2023-01-26T17:41:38.447Z,7.00
2023-01-26T17:45:45.119Z,6.80
2023-01-26T17:49:51.934Z,6.80
2023-01-26T17:53:58.814Z,6.80
2023-01-26T17:58:10.532Z,6.70
2023-01-26T18:02:17.671Z,6.70
2023-01-26T18:06:24.397Z,6.80
2023-01-26T18:10:31.231Z,6.70
2023-01-26T18:14:37.966Z,6.90
2023-01-26T18:18:45.366Z,6.70
2023-01-26T18:22:52.033Z,6.60
2023-01-26T18:26:58.705Z,6.60
2023-01-26T18:31:14.151Z,6.50
2023-01-26T18:35:20.856Z,6.60
2023-01-26T18:39:29.050Z,6.50
2023-01-26T18:43:35.731Z,6.40
2023-01-26T18:47:43.215Z,6.40
2023-01-26T18:51:52.210Z,7.20
2023-01-26T18:56:11.350Z,6.40
2023-01-26T19:00:18.517Z,6.40
2023-01-26T19:04:25.268Z,6.40
2023-01-26T19:08:32.829Z,6.30
2023-01-26T19:12:39.610Z,6.30
2023-01-26T19:16:49.077Z,6.30
2023-01-26T19:21:00.925Z,6.30
2023-01-26T19:25:08.038Z,6.30
2023-01-26T19:29:14.762Z,6.30
2023-01-26T19:33:24.212Z,6.20
2023-01-26T19:37:30.945Z,6.10
2023-01-26T19:41:39.065Z,6.10
2023-01-26T19:45:52.900Z,6.10
2023-01-26T19:49:59.678Z,6.10
2023-01-26T19:54:06.344Z,6.30
2023-01-26T19:58:13.729Z,6.30
2023-01-26T20:02:21.186Z,6.30
2023-01-26T20:06:30.911Z,6.20
2023-01-26T20:10:37.639Z,6.20
2023-01-26T20:14:44.310Z,6.10
2023-01-26T20:18:51.115Z,6.10
2023-01-26T20:22:57.931Z,6.10
2023-01-26T20:27:05.069Z,6.00
2023-01-26T20:31:21.098Z,6.10
2023-01-26T20:35:28.539Z,6.00
2023-01-26T20:39:35.222Z,5.90
2023-01-26T20:43:57.385Z,5.80
2023-01-26T20:48:06.270Z,5.80
2023-01-26T20:52:12.980Z,5.70
2023-01-26T20:56:21.415Z,5.70
2023-01-26T21:00:28.190Z,5.70
2023-01-26T21:04:34.850Z,5.70
2023-01-26T21:08:42.092Z,5.60
2023-01-26T21:12:48.864Z,5.60
2023-01-26T21:16:55.824Z,5.60
2023-01-26T21:21:05.796Z,5.60
2023-01-26T21:25:14.034Z,5.60
2023-01-26T21:29:20.770Z,5.50
2023-01-26T21:33:28.913Z,5.50
2023-01-26T21:37:35.558Z,5.50
2023-01-26T21:41:59.704Z,5.40
2023-01-26T21:46:07.799Z,5.30
2023-01-26T21:50:34.547Z,5.10
2023-01-26T21:54:41.570Z,5.10
2023-01-26T21:58:54.089Z,5.10
2023-01-26T22:03:00.720Z,5.00
2023-01-26T22:07:07.403Z,4.90
2023-01-26T22:11:14.641Z,4.90
2023-01-26T22:15:21.336Z,4.90
2023-01-26T22:19:28.225Z,4.80
2023-01-26T22:23:37.185Z,4.90
2023-01-26T22:27:44.481Z,4.90
2023-01-26T22:31:51.910Z,4.90
2023-01-26T22:36:10.849Z,4.80
2023-01-26T22:40:17.992Z,4.80
2023-01-26T22:44:24.734Z,4.80
2023-01-26T22:48:32.050Z,4.70
2023-01-26T22:52:38.735Z,4.80
2023-01-26T22:56:45.458Z,4.80
2023-01-26T23:00:52.268Z,4.70
2023-01-26T23:04:58.955Z,4.60
2023-01-26T23:09:05.636Z,4.60
2023-01-26T23:13:12.331Z,4.70
2023-01-26T23:17:19.014Z,4.70
2023-01-26T23:21:27.257Z,4.70
2023-01-26T23:25:52.346Z,5.60
2023-01-26T23:30:00.249Z,4.80
2023-01-26T23:34:08.671Z,4.80
2023-01-26T23:38:16.133Z,4.70
2023-01-26T23:42:22.883Z,4.70
2023-01-26T23:46:29.933Z,4.60
2023-01-26T23:50:36.759Z,4.70
2023-01-26T23:54:43.425Z,4.60
2023-01-26T23:58:50.116Z,4.60
